sensor_id;sensor_type;location;lat;lon;timestamp;temperature;humidity
15231;DHT22;32569;51.762;8.564;2023-05-03T00:02:08;6.70;98.00
15231;DHT22;32569;51.762;8.564;2023-05-03T00:04:35;6.70;98.00
15231;DHT22;32569;51.762;8.564;2023-05-03T00:07:01;6.70;98.30
15231;DHT22;32569;51.762;8.564;2023-05-03T00:09:28;6.70;98.30
15231;DHT22;32569;51.762;8.564;2023-05-03T00:11:55;6.60;98.40
15231;DHT22;32569;51.762;8.564;2023-05-03T00:14:21;6.60;98.60
15231;DHT22;32569;51.762;8.564;2023-05-03T00:16:49;6.50;98.70
15231;DHT22;32569;51.762;8.564;2023-05-03T00:19:16;6.40;98.80
15231;DHT22;32569;51.762;8.564;2023-05-03T00:21:57;6.40;98.80
15231;DHT22;32569;51.762;8.564;2023-05-03T00:24:23;6.20;99.20
15231;DHT22;32569;51.762;8.564;2023-05-03T00:26:50;6.00;99.40
15231;DHT22;32569;51.762;8.564;2023-05-03T00:29:16;5.80;99.90
15231;DHT22;32569;51.762;8.564;2023-05-03T00:31:45;5.80;99.90
15231;DHT22;32569;51.762;8.564;2023-05-03T00:34:13;6.00;99.60
15231;DHT22;32569;51.762;8.564;2023-05-03T00:36:40;5.80;99.60
15231;DHT22;32569;51.762;8.564;2023-05-03T00:39:06;5.70;99.90
15231;DHT22;32569;51.762;8.564;2023-05-03T00:41:34;5.60;99.90
15231;DHT22;32569;51.762;8.564;2023-05-03T00:44:01;5.50;99.90
15231;DHT22;32569;51.762;8.564;2023-05-03T00:46:28;5.40;99.90
15231;DHT22;32569;51.762;8.564;2023-05-03T00:48:55;5.30;99.90
15231;DHT22;32569;51.762;8.564;2023-05-03T00:51:25;5.40;99.90
15231;DHT22;32569;51.762;8.564;2023-05-03T00:53:53;5.50;99.90
15231;DHT22;32569;51.762;8.564;2023-05-03T00:56:20;5.70;99.90
15231;DHT22;32569;51.762;8.564;2023-05-03T00:58:47;5.70;99.90
15231;DHT22;32569;51.762;8.564;2023-05-03T01:01:13;5.70;99.90
15231;DHT22;32569;51.762;8.564;2023-05-03T01:03:41;5.60;99.90
15231;DHT22;32569;51.762;8.564;2023-05-03T01:06:12;5.50;99.90
15231;DHT22;32569;51.762;8.564;2023-05-03T01:08:46;5.50;99.90
15231;DHT22;32569;51.762;8.564;2023-05-03T01:11:20;5.50;99.90
15231;DHT22;32569;51.762;8.564;2023-05-03T01:13:54;5.50;99.90
15231;DHT22;32569;51.762;8.564;2023-05-03T01:16:26;5.40;99.90
15231;DHT22;32569;51.762;8.564;2023-05-03T01:18:57;5.40;99.90
15231;DHT22;32569;51.762;8.564;2023-05-03T01:21:27;5.20;99.90
15231;DHT22;32569;51.762;8.564;2023-05-03T01:24:02;5.20;99.90
15231;DHT22;32569;51.762;8.564;2023-05-03T01:26:30;5.30;99.90
15231;DHT22;32569;51.762;8.564;2023-05-03T01:28:58;5.20;99.90
15231;DHT22;32569;51.762;8.564;2023-05-03T01:31:29;5.10;99.90
15231;DHT22;32569;51.762;8.564;2023-05-03T01:34:09;5.00;99.90
15231;DHT22;32569;51.762;8.564;2023-05-03T01:36:40;4.90;99.90
15231;DHT22;32569;51.762;8.564;2023-05-03T01:39:11;5.00;99.90
15231;DHT22;32569;51.762;8.564;2023-05-03T01:41:41;5.00;99.90
15231;DHT22;32569;51.762;8.564;2023-05-03T01:44:09;5.00;99.90
15231;DHT22;32569;51.762;8.564;2023-05-03T01:46:41;5.00;99.90
15231;DHT22;32569;51.762;8.564;2023-05-03T01:49:08;5.00;99.90
15231;DHT22;32569;51.762;8.564;2023-05-03T01:51:34;5.00;99.90
15231;DHT22;32569;51.762;8.564;2023-05-03T01:54:01;4.90;99.90
15231;DHT22;32569;51.762;8.564;2023-05-03T01:56:28;4.80;99.90
15231;DHT22;32569;51.762;8.564;2023-05-03T01:58:56;4.80;99.90
15231;DHT22;32569;51.762;8.564;2023-05-03T02:01:23;4.80;99.90
15231;DHT22;32569;51.762;8.564;2023-05-03T02:03:49;4.90;99.90
15231;DHT22;32569;51.762;8.564;2023-05-03T02:06:16;5.00;99.90
15231;DHT22;32569;51.762;8.564;2023-05-03T02:08:42;4.90;99.90
15231;DHT22;32569;51.762;8.564;2023-05-03T02:11:09;4.90;99.90
15231;DHT22;32569;51.762;8.564;2023-05-03T02:13:37;4.80;99.90
15231;DHT22;32569;51.762;8.564;2023-05-03T02:16:05;4.70;99.90
15231;DHT22;32569;51.762;8.564;2023-05-03T02:18:32;4.60;99.90
15231;DHT22;32569;51.762;8.564;2023-05-03T02:21:00;4.60;99.90
15231;DHT22;32569;51.762;8.564;2023-05-03T02:23:26;4.50;99.90
15231;DHT22;32569;51.762;8.564;2023-05-03T02:25:53;4.50;99.90
15231;DHT22;32569;51.762;8.564;2023-05-03T02:28:19;4.60;99.90
15231;DHT22;32569;51.762;8.564;2023-05-03T02:30:46;4.70;99.90
15231;DHT22;32569;51.762;8.564;2023-05-03T02:33:14;4.80;99.90
15231;DHT22;32569;51.762;8.564;2023-05-03T02:35:41;4.80;99.90
15231;DHT22;32569;51.762;8.564;2023-05-03T02:38:08;4.70;99.90
15231;DHT22;32569;51.762;8.564;2023-05-03T02:40:34;4.70;99.90
15231;DHT22;32569;51.762;8.564;2023-05-03T02:43:01;4.70;99.90
15231;DHT22;32569;51.762;8.564;2023-05-03T02:45:28;4.70;99.90
15231;DHT22;32569;51.762;8.564;2023-05-03T02:47:55;4.50;99.90
15231;DHT22;32569;51.762;8.564;2023-05-03T02:50:23;4.40;99.90
15231;DHT22;32569;51.762;8.564;2023-05-03T02:52:50;4.50;99.90
15231;DHT22;32569;51.762;8.564;2023-05-03T02:55:24;4.50;99.90
15231;DHT22;32569;51.762;8.564;2023-05-03T02:57:51;4.30;99.90
15231;DHT22;32569;51.762;8.564;2023-05-03T03:00:18;4.20;99.90
15231;DHT22;32569;51.762;8.564;2023-05-03T03:02:44;4.20;99.90
15231;DHT22;32569;51.762;8.564;2023-05-03T03:05:11;4.20;99.90
15231;DHT22;32569;51.762;8.564;2023-05-03T03:07:39;4.10;99.90
15231;DHT22;32569;51.762;8.564;2023-05-03T03:10:06;4.00;99.90
15231;DHT22;32569;51.762;8.564;2023-05-03T03:12:34;3.90;99.90
15231;DHT22;32569;51.762;8.564;2023-05-03T03:15:01;4.00;99.90
15231;DHT22;32569;51.762;8.564;2023-05-03T03:17:28;4.00;99.90
15231;DHT22;32569;51.762;8.564;2023-05-03T03:19:54;4.10;99.90
15231;DHT22;32569;51.762;8.564;2023-05-03T03:22:22;4.20;99.90
15231;DHT22;32569;51.762;8.564;2023-05-03T03:24:51;4.20;99.90
15231;DHT22;32569;51.762;8.564;2023-05-03T03:27:17;4.20;99.90
15231;DHT22;32569;51.762;8.564;2023-05-03T03:29:45;3.80;99.90
15231;DHT22;32569;51.762;8.564;2023-05-03T03:32:12;3.80;99.90
15231;DHT22;32569;51.762;8.564;2023-05-03T03:34:39;3.90;99.90
15231;DHT22;32569;51.762;8.564;2023-05-03T03:37:06;3.90;99.90
15231;DHT22;32569;51.762;8.564;2023-05-03T03:39:32;3.80;99.90
15231;DHT22;32569;51.762;8.564;2023-05-03T03:42:00;3.70;99.90
15231;DHT22;32569;51.762;8.564;2023-05-03T03:44:28;3.70;99.90
15231;DHT22;32569;51.762;8.564;2023-05-03T03:46:54;3.90;99.90
15231;DHT22;32569;51.762;8.564;2023-05-03T03:49:21;3.80;99.90
15231;DHT22;32569;51.762;8.564;2023-05-03T03:51:48;3.60;99.90
15231;DHT22;32569;51.762;8.564;2023-05-03T03:54:14;3.50;99.90
15231;DHT22;32569;51.762;8.564;2023-05-03T03:56:41;3.40;99.90
15231;DHT22;32569;51.762;8.564;2023-05-03T03:59:09;3.30;99.90
15231;DHT22;32569;51.762;8.564;2023-05-03T04:01:36;3.30;99.90
15231;DHT22;32569;51.762;8.564;2023-05-03T04:04:03;3.40;99.90
15231;DHT22;32569;51.762;8.564;2023-05-03T04:06:30;3.30;99.90
15231;DHT22;32569;51.762;8.564;2023-05-03T04:08:57;3.20;99.90
15231;DHT22;32569;51.762;8.564;2023-05-03T04:11:24;3.20;99.90
15231;DHT22;32569;51.762;8.564;2023-05-03T04:13:50;3.20;99.90
15231;DHT22;32569;51.762;8.564;2023-05-03T04:16:18;3.20;99.90
15231;DHT22;32569;51.762;8.564;2023-05-03T04:18:45;3.30;99.90
15231;DHT22;32569;51.762;8.564;2023-05-03T04:21:12;3.40;99.90
15231;DHT22;32569;51.762;8.564;2023-05-03T04:23:38;3.50;99.90
15231;DHT22;32569;51.762;8.564;2023-05-03T04:26:05;3.60;99.90
15231;DHT22;32569;51.762;8.564;2023-05-03T04:28:32;3.80;99.90
15231;DHT22;32569;51.762;8.564;2023-05-03T04:30:58;4.00;99.90
15231;DHT22;32569;51.762;8.564;2023-05-03T04:33:27;4.10;99.90
15231;DHT22;32569;51.762;8.564;2023-05-03T04:35:54;4.40;99.90
15231;DHT22;32569;51.762;8.564;2023-05-03T04:38:20;4.50;99.90
15231;DHT22;32569;51.762;8.564;2023-05-03T04:40:47;4.60;99.90
15231;DHT22;32569;51.762;8.564;2023-05-03T04:43:14;4.80;99.90
15231;DHT22;32569;51.762;8.564;2023-05-03T04:45:41;4.90;99.90
15231;DHT22;32569;51.762;8.564;2023-05-03T04:48:07;5.30;99.90
15231;DHT22;32569;51.762;8.564;2023-05-03T04:50:35;5.50;99.90
15231;DHT22;32569;51.762;8.564;2023-05-03T04:53:02;5.80;99.90
15231;DHT22;32569;51.762;8.564;2023-05-03T04:55:28;6.00;99.90
15231;DHT22;32569;51.762;8.564;2023-05-03T04:57:55;6.10;99.90
15231;DHT22;32569;51.762;8.564;2023-05-03T05:00:22;6.20;99.70
15231;DHT22;32569;51.762;8.564;2023-05-03T05:02:49;6.10;99.90
15231;DHT22;32569;51.762;8.564;2023-05-03T05:05:16;6.10;99.80
15231;DHT22;32569;51.762;8.564;2023-05-03T05:07:44;6.20;99.90
15231;DHT22;32569;51.762;8.564;2023-05-03T05:10:11;6.40;99.50
15231;DHT22;32569;51.762;8.564;2023-05-03T05:12:39;6.20;99.80
15231;DHT22;32569;51.762;8.564;2023-05-03T05:15:06;6.10;99.90
15231;DHT22;32569;51.762;8.564;2023-05-03T05:17:33;6.10;99.90
15231;DHT22;32569;51.762;8.564;2023-05-03T05:20:03;6.00;99.90
15231;DHT22;32569;51.762;8.564;2023-05-03T05:22:32;6.00;99.90
15231;DHT22;32569;51.762;8.564;2023-05-03T05:25:00;6.20;99.90
15231;DHT22;32569;51.762;8.564;2023-05-03T05:27:27;6.30;99.90
15231;DHT22;32569;51.762;8.564;2023-05-03T05:29:54;6.30;99.90
15231;DHT22;32569;51.762;8.564;2023-05-03T05:32:21;6.20;99.90
15231;DHT22;32569;51.762;8.564;2023-05-03T05:34:48;6.30;99.90
15231;DHT22;32569;51.762;8.564;2023-05-03T05:37:19;6.40;99.90
15231;DHT22;32569;51.762;8.564;2023-05-03T05:39:46;6.60;99.90
15231;DHT22;32569;51.762;8.564;2023-05-03T05:42:14;6.70;99.90
15231;DHT22;32569;51.762;8.564;2023-05-03T05:44:41;7.00;99.90
15231;DHT22;32569;51.762;8.564;2023-05-03T05:47:08;7.20;99.90
15231;DHT22;32569;51.762;8.564;2023-05-03T05:49:35;7.40;99.90
15231;DHT22;32569;51.762;8.564;2023-05-03T05:52:01;7.50;99.90
15231;DHT22;32569;51.762;8.564;2023-05-03T05:54:28;7.70;99.40
15231;DHT22;32569;51.762;8.564;2023-05-03T05:56:55;7.90;99.50
15231;DHT22;32569;51.762;8.564;2023-05-03T05:59:23;8.10;99.10
15231;DHT22;32569;51.762;8.564;2023-05-03T06:01:50;7.90;99.20
15231;DHT22;32569;51.762;8.564;2023-05-03T06:04:16;8.40;98.50
15231;DHT22;32569;51.762;8.564;2023-05-03T06:06:43;8.60;97.80
15231;DHT22;32569;51.762;8.564;2023-05-03T06:09:09;8.70;97.70
15231;DHT22;32569;51.762;8.564;2023-05-03T06:11:36;8.90;97.40
15231;DHT22;32569;51.762;8.564;2023-05-03T06:14:03;9.00;97.20
15231;DHT22;32569;51.762;8.564;2023-05-03T06:16:35;9.50;96.70
15231;DHT22;32569;51.762;8.564;2023-05-03T06:19:01;9.60;96.30
15231;DHT22;32569;51.762;8.564;2023-05-03T06:21:29;9.50;95.90
15231;DHT22;32569;51.762;8.564;2023-05-03T06:23:56;9.10;96.20
15231;DHT22;32569;51.762;8.564;2023-05-03T06:26:22;8.60;97.10
15231;DHT22;32569;51.762;8.564;2023-05-03T06:28:49;8.40;97.80
15231;DHT22;32569;51.762;8.564;2023-05-03T06:31:17;8.10;98.30
15231;DHT22;32569;51.762;8.564;2023-05-03T06:33:45;8.00;97.50
15231;DHT22;32569;51.762;8.564;2023-05-03T06:36:12;7.90;97.90
15231;DHT22;32569;51.762;8.564;2023-05-03T06:38:39;7.80;97.00
15231;DHT22;32569;51.762;8.564;2023-05-03T06:41:06;7.80;97.80
15231;DHT22;32569;51.762;8.564;2023-05-03T06:43:33;7.70;97.40
15231;DHT22;32569;51.762;8.564;2023-05-03T06:45:59;7.70;97.80
15231;DHT22;32569;51.762;8.564;2023-05-03T06:48:26;7.70;98.10
15231;DHT22;32569;51.762;8.564;2023-05-03T06:50:55;7.80;97.90
15231;DHT22;32569;51.762;8.564;2023-05-03T06:53:21;7.80;97.70
15231;DHT22;32569;51.762;8.564;2023-05-03T06:55:48;7.90;98.10
15231;DHT22;32569;51.762;8.564;2023-05-03T06:58:15;8.00;97.80
15231;DHT22;32569;51.762;8.564;2023-05-03T07:00:41;8.00;97.80
15231;DHT22;32569;51.762;8.564;2023-05-03T07:03:08;8.00;97.80
15231;DHT22;32569;51.762;8.564;2023-05-03T07:05:35;8.00;97.50
15231;DHT22;32569;51.762;8.564;2023-05-03T07:08:03;8.10;97.20
15231;DHT22;32569;51.762;8.564;2023-05-03T07:10:30;8.10;96.50
15231;DHT22;32569;51.762;8.564;2023-05-03T07:12:56;8.10;97.20
15231;DHT22;32569;51.762;8.564;2023-05-03T07:15:23;8.10;96.80
15231;DHT22;32569;51.762;8.564;2023-05-03T07:17:50;8.10;96.30
15231;DHT22;32569;51.762;8.564;2023-05-03T07:20:17;8.00;96.20
15231;DHT22;32569;51.762;8.564;2023-05-03T07:22:44;8.10;96.90
15231;DHT22;32569;51.762;8.564;2023-05-03T07:25:12;8.10;96.50
15231;DHT22;32569;51.762;8.564;2023-05-03T07:27:42;8.20;96.20
15231;DHT22;32569;51.762;8.564;2023-05-03T07:30:09;8.20;96.40
15231;DHT22;32569;51.762;8.564;2023-05-03T07:32:36;8.20;96.20
15231;DHT22;32569;51.762;8.564;2023-05-03T07:35:04;8.30;96.40
15231;DHT22;32569;51.762;8.564;2023-05-03T07:37:31;8.40;96.00
15231;DHT22;32569;51.762;8.564;2023-05-03T07:39:58;8.50;96.10
15231;DHT22;32569;51.762;8.564;2023-05-03T07:42:26;8.60;95.90
15231;DHT22;32569;51.762;8.564;2023-05-03T07:44:53;8.60;95.70
15231;DHT22;32569;51.762;8.564;2023-05-03T07:47:20;8.70;95.50
15231;DHT22;32569;51.762;8.564;2023-05-03T07:49:47;8.70;95.50
15231;DHT22;32569;51.762;8.564;2023-05-03T07:52:15;8.80;95.60
15231;DHT22;32569;51.762;8.564;2023-05-03T07:54:42;8.90;95.10
15231;DHT22;32569;51.762;8.564;2023-05-03T07:57:10;8.90;95.10
15231;DHT22;32569;51.762;8.564;2023-05-03T07:59:39;9.00;94.60
15231;DHT22;32569;51.762;8.564;2023-05-03T08:02:06;9.00;94.70
15231;DHT22;32569;51.762;8.564;2023-05-03T08:04:33;9.10;94.50
15231;DHT22;32569;51.762;8.564;2023-05-03T08:07:00;9.10;94.90
15231;DHT22;32569;51.762;8.564;2023-05-03T08:09:27;9.30;94.90
15231;DHT22;32569;51.762;8.564;2023-05-03T08:11:54;9.50;94.50
15231;DHT22;32569;51.762;8.564;2023-05-03T08:14:30;9.50;94.20
15231;DHT22;32569;51.762;8.564;2023-05-03T08:16:59;9.60;94.50
15231;DHT22;32569;51.762;8.564;2023-05-03T08:19:26;9.80;94.20
15231;DHT22;32569;51.762;8.564;2023-05-03T08:21:52;9.90;94.00
15231;DHT22;32569;51.762;8.564;2023-05-03T08:24:19;9.80;93.30
15231;DHT22;32569;51.762;8.564;2023-05-03T08:26:46;9.80;93.50
15231;DHT22;32569;51.762;8.564;2023-05-03T08:29:13;9.60;93.80
15231;DHT22;32569;51.762;8.564;2023-05-03T08:31:40;9.50;93.90
15231;DHT22;32569;51.762;8.564;2023-05-03T08:34:08;9.40;94.10
15231;DHT22;32569;51.762;8.564;2023-05-03T08:36:36;9.50;93.60
15231;DHT22;32569;51.762;8.564;2023-05-03T08:39:03;9.50;93.40
15231;DHT22;32569;51.762;8.564;2023-05-03T08:41:32;9.50;93.10
15231;DHT22;32569;51.762;8.564;2023-05-03T08:44:00;9.40;93.90
15231;DHT22;32569;51.762;8.564;2023-05-03T08:46:28;9.50;94.20
15231;DHT22;32569;51.762;8.564;2023-05-03T08:48:55;9.60;94.00
15231;DHT22;32569;51.762;8.564;2023-05-03T08:51:24;9.60;93.30
15231;DHT22;32569;51.762;8.564;2023-05-03T08:53:52;9.50;93.00
15231;DHT22;32569;51.762;8.564;2023-05-03T08:56:23;9.50;94.00
15231;DHT22;32569;51.762;8.564;2023-05-03T08:58:52;9.60;93.00
15231;DHT22;32569;51.762;8.564;2023-05-03T09:01:19;9.70;92.80
15231;DHT22;32569;51.762;8.564;2023-05-03T09:03:49;9.70;92.00
15231;DHT22;32569;51.762;8.564;2023-05-03T09:06:20;9.70;93.10
15231;DHT22;32569;51.762;8.564;2023-05-03T09:08:48;9.60;92.80
15231;DHT22;32569;51.762;8.564;2023-05-03T09:11:19;9.70;93.10
15231;DHT22;32569;51.762;8.564;2023-05-03T09:13:46;9.80;93.30
15231;DHT22;32569;51.762;8.564;2023-05-03T09:16:21;10.10;93.30
15231;DHT22;32569;51.762;8.564;2023-05-03T09:18:58;10.40;93.40
15231;DHT22;32569;51.762;8.564;2023-05-03T09:21:25;10.40;92.00
15231;DHT22;32569;51.762;8.564;2023-05-03T09:23:56;10.50;92.40
15231;DHT22;32569;51.762;8.564;2023-05-03T09:26:30;10.50;91.90
15231;DHT22;32569;51.762;8.564;2023-05-03T09:28:58;10.30;92.00
15231;DHT22;32569;51.762;8.564;2023-05-03T09:31:26;10.20;92.00
15231;DHT22;32569;51.762;8.564;2023-05-03T09:33:53;10.30;92.30
15231;DHT22;32569;51.762;8.564;2023-05-03T09:36:20;10.10;92.10
15231;DHT22;32569;51.762;8.564;2023-05-03T09:38:48;10.30;92.60
15231;DHT22;32569;51.762;8.564;2023-05-03T09:41:25;10.40;92.60
15231;DHT22;32569;51.762;8.564;2023-05-03T09:43:52;10.40;92.40
15231;DHT22;32569;51.762;8.564;2023-05-03T09:46:20;10.40;92.00
15231;DHT22;32569;51.762;8.564;2023-05-03T09:48:49;10.50;91.60
15231;DHT22;32569;51.762;8.564;2023-05-03T09:51:19;10.50;91.60
15231;DHT22;32569;51.762;8.564;2023-05-03T09:53:48;10.60;92.30
15231;DHT22;32569;51.762;8.564;2023-05-03T09:56:16;10.60;91.30
15231;DHT22;32569;51.762;8.564;2023-05-03T09:58:45;10.60;90.60
15231;DHT22;32569;51.762;8.564;2023-05-03T10:01:13;10.50;91.10
15231;DHT22;32569;51.762;8.564;2023-05-03T10:03:44;10.60;91.50
15231;DHT22;32569;51.762;8.564;2023-05-03T10:06:21;10.70;91.60
15231;DHT22;32569;51.762;8.564;2023-05-03T10:08:52;10.70;90.70
15231;DHT22;32569;51.762;8.564;2023-05-03T10:11:23;10.50;91.10
15231;DHT22;32569;51.762;8.564;2023-05-03T10:13:51;10.40;91.60
15231;DHT22;32569;51.762;8.564;2023-05-03T10:16:20;10.60;91.80
15231;DHT22;32569;51.762;8.564;2023-05-03T10:18:53;10.80;91.00
15231;DHT22;32569;51.762;8.564;2023-05-03T10:21:28;10.90;91.20
15231;DHT22;32569;51.762;8.564;2023-05-03T10:24:14;11.10;91.00
15231;DHT22;32569;51.762;8.564;2023-05-03T10:26:43;11.30;89.90
15231;DHT22;32569;51.762;8.564;2023-05-03T10:32:31;11.30;88.90
15231;DHT22;32569;51.762;8.564;2023-05-03T10:35:00;11.20;90.00
15231;DHT22;32569;51.762;8.564;2023-05-03T10:37:27;11.30;90.00
15231;DHT22;32569;51.762;8.564;2023-05-03T10:39:54;11.20;90.10
15231;DHT22;32569;51.762;8.564;2023-05-03T10:42:24;11.30;90.70
15231;DHT22;32569;51.762;8.564;2023-05-03T10:44:52;11.50;90.90
15231;DHT22;32569;51.762;8.564;2023-05-03T10:47:21;11.40;90.40
15231;DHT22;32569;51.762;8.564;2023-05-03T10:52:48;11.30;90.80
15231;DHT22;32569;51.762;8.564;2023-05-03T10:55:17;11.40;90.70
15231;DHT22;32569;51.762;8.564;2023-05-03T10:57:47;11.60;90.30
15231;DHT22;32569;51.762;8.564;2023-05-03T11:00:18;11.60;90.60
15231;DHT22;32569;51.762;8.564;2023-05-03T11:03:05;11.70;90.30
15231;DHT22;32569;51.762;8.564;2023-05-03T11:05:38;11.90;90.50
15231;DHT22;32569;51.762;8.564;2023-05-03T11:08:09;11.90;88.90
15231;DHT22;32569;51.762;8.564;2023-05-03T11:10:36;12.00;89.20
15231;DHT22;32569;51.762;8.564;2023-05-03T11:13:04;12.00;89.40
15231;DHT22;32569;51.762;8.564;2023-05-03T11:15:31;11.90;89.10
15231;DHT22;32569;51.762;8.564;2023-05-03T11:17:58;11.90;89.40
15231;DHT22;32569;51.762;8.564;2023-05-03T11:20:24;11.90;88.70
15231;DHT22;32569;51.762;8.564;2023-05-03T11:22:51;11.90;90.20
15231;DHT22;32569;51.762;8.564;2023-05-03T11:25:18;12.10;89.10
15231;DHT22;32569;51.762;8.564;2023-05-03T11:27:44;12.20;89.60
15231;DHT22;32569;51.762;8.564;2023-05-03T11:30:14;12.20;87.70
15231;DHT22;32569;51.762;8.564;2023-05-03T11:32:43;12.10;89.40
15231;DHT22;32569;51.762;8.564;2023-05-03T11:35:11;12.00;90.20
15231;DHT22;32569;51.762;8.564;2023-05-03T11:37:38;12.20;90.70
15231;DHT22;32569;51.762;8.564;2023-05-03T11:40:12;12.40;90.00
15231;DHT22;32569;51.762;8.564;2023-05-03T11:42:49;12.50;90.00
15231;DHT22;32569;51.762;8.564;2023-05-03T11:45:18;12.40;90.00
15231;DHT22;32569;51.762;8.564;2023-05-03T11:47:45;12.50;88.40
15231;DHT22;32569;51.762;8.564;2023-05-03T11:50:25;12.50;90.00
15231;DHT22;32569;51.762;8.564;2023-05-03T11:52:52;12.50;87.40
15231;DHT22;32569;51.762;8.564;2023-05-03T11:55:18;12.50;86.40
15231;DHT22;32569;51.762;8.564;2023-05-03T11:57:46;12.40;86.20
15231;DHT22;32569;51.762;8.564;2023-05-03T12:00:14;12.40;86.70
15231;DHT22;32569;51.762;8.564;2023-05-03T12:02:46;12.50;87.10
15231;DHT22;32569;51.762;8.564;2023-05-03T12:05:14;12.40;87.50
15231;DHT22;32569;51.762;8.564;2023-05-03T12:07:41;12.40;87.50
15231;DHT22;32569;51.762;8.564;2023-05-03T12:10:15;12.40;88.50
15231;DHT22;32569;51.762;8.564;2023-05-03T12:12:53;12.50;89.20
15231;DHT22;32569;51.762;8.564;2023-05-03T12:15:32;12.70;88.30
15231;DHT22;32569;51.762;8.564;2023-05-03T12:18:02;12.90;87.90
15231;DHT22;32569;51.762;8.564;2023-05-03T12:20:29;12.80;86.30
15231;DHT22;32569;51.762;8.564;2023-05-03T12:22:58;12.70;86.50
15231;DHT22;32569;51.762;8.564;2023-05-03T12:25:26;12.70;88.10
15231;DHT22;32569;51.762;8.564;2023-05-03T12:27:53;12.70;87.90
15231;DHT22;32569;51.762;8.564;2023-05-03T12:30:20;12.80;87.90
15231;DHT22;32569;51.762;8.564;2023-05-03T12:32:47;12.80;87.40
15231;DHT22;32569;51.762;8.564;2023-05-03T12:35:16;12.90;87.80
15231;DHT22;32569;51.762;8.564;2023-05-03T12:37:43;12.80;87.70
15231;DHT22;32569;51.762;8.564;2023-05-03T12:40:10;12.80;87.90
15231;DHT22;32569;51.762;8.564;2023-05-03T12:42:38;12.90;86.60
15231;DHT22;32569;51.762;8.564;2023-05-03T12:45:05;13.00;88.40
15231;DHT22;32569;51.762;8.564;2023-05-03T12:47:32;13.30;88.90
15231;DHT22;32569;51.762;8.564;2023-05-03T12:49:59;13.40;87.00
15231;DHT22;32569;51.762;8.564;2023-05-03T12:52:28;13.40;85.60
15231;DHT22;32569;51.762;8.564;2023-05-03T12:54:56;13.20;86.60
15231;DHT22;32569;51.762;8.564;2023-05-03T12:57:22;13.20;87.60
15231;DHT22;32569;51.762;8.564;2023-05-03T12:59:49;13.20;87.80
15231;DHT22;32569;51.762;8.564;2023-05-03T13:02:20;13.20;88.50
15231;DHT22;32569;51.762;8.564;2023-05-03T13:04:48;13.20;87.90
15231;DHT22;32569;51.762;8.564;2023-05-03T13:07:19;13.30;88.20
15231;DHT22;32569;51.762;8.564;2023-05-03T13:09:50;13.40;87.60
15231;DHT22;32569;51.762;8.564;2023-05-03T13:12:17;13.40;86.30
15231;DHT22;32569;51.762;8.564;2023-05-03T13:14:45;13.50;86.00
15231;DHT22;32569;51.762;8.564;2023-05-03T13:17:12;13.70;86.20
15231;DHT22;32569;51.762;8.564;2023-05-03T13:19:40;13.70;85.40
15231;DHT22;32569;51.762;8.564;2023-05-03T13:22:07;13.50;85.90
15231;DHT22;32569;51.762;8.564;2023-05-03T13:24:33;13.50;87.50
15231;DHT22;32569;51.762;8.564;2023-05-03T13:27:01;13.70;86.20
15231;DHT22;32569;51.762;8.564;2023-05-03T13:29:29;13.70;85.80
15231;DHT22;32569;51.762;8.564;2023-05-03T13:31:55;13.70;86.10
15231;DHT22;32569;51.762;8.564;2023-05-03T13:34:22;13.70;86.40
15231;DHT22;32569;51.762;8.564;2023-05-03T13:36:48;13.70;86.80
15231;DHT22;32569;51.762;8.564;2023-05-03T13:39:15;13.70;86.50
15231;DHT22;32569;51.762;8.564;2023-05-03T13:41:43;13.80;85.80
15231;DHT22;32569;51.762;8.564;2023-05-03T13:44:11;13.90;85.40
15231;DHT22;32569;51.762;8.564;2023-05-03T13:46:39;13.90;86.10
15231;DHT22;32569;51.762;8.564;2023-05-03T13:49:06;13.80;84.70
15231;DHT22;32569;51.762;8.564;2023-05-03T13:51:33;13.80;86.80
15231;DHT22;32569;51.762;8.564;2023-05-03T13:54:01;13.90;85.50
15231;DHT22;32569;51.762;8.564;2023-05-03T13:56:29;14.00;84.10
15231;DHT22;32569;51.762;8.564;2023-05-03T13:58:56;14.20;84.60
15231;DHT22;32569;51.762;8.564;2023-05-03T14:01:24;14.10;83.80
15231;DHT22;32569;51.762;8.564;2023-05-03T14:03:51;14.10;84.80
15231;DHT22;32569;51.762;8.564;2023-05-03T14:06:19;14.10;84.90
15231;DHT22;32569;51.762;8.564;2023-05-03T14:08:46;14.20;84.60
15231;DHT22;32569;51.762;8.564;2023-05-03T14:11:13;14.20;84.90
15231;DHT22;32569;51.762;8.564;2023-05-03T14:13:40;14.30;84.50
15231;DHT22;32569;51.762;8.564;2023-05-03T14:16:10;14.30;84.70
15231;DHT22;32569;51.762;8.564;2023-05-03T14:18:41;14.30;83.20
15231;DHT22;32569;51.762;8.564;2023-05-03T14:21:08;14.30;83.20
15231;DHT22;32569;51.762;8.564;2023-05-03T14:23:35;14.40;83.50
15231;DHT22;32569;51.762;8.564;2023-05-03T14:26:01;14.50;82.60
15231;DHT22;32569;51.762;8.564;2023-05-03T14:28:29;14.60;83.70
15231;DHT22;32569;51.762;8.564;2023-05-03T14:30:56;14.50;83.00
15231;DHT22;32569;51.762;8.564;2023-05-03T14:33:22;14.60;83.40
15231;DHT22;32569;51.762;8.564;2023-05-03T14:35:50;14.60;83.30
15231;DHT22;32569;51.762;8.564;2023-05-03T14:38:17;14.70;83.20
15231;DHT22;32569;51.762;8.564;2023-05-03T14:40:43;14.50;83.80
15231;DHT22;32569;51.762;8.564;2023-05-03T14:43:10;14.60;84.90
15231;DHT22;32569;51.762;8.564;2023-05-03T14:45:37;14.50;83.90
15231;DHT22;32569;51.762;8.564;2023-05-03T14:48:04;14.60;83.70
15231;DHT22;32569;51.762;8.564;2023-05-03T14:50:31;14.60;83.90
15231;DHT22;32569;51.762;8.564;2023-05-03T14:52:59;14.60;83.80
15231;DHT22;32569;51.762;8.564;2023-05-03T14:55:25;14.70;84.70
15231;DHT22;32569;51.762;8.564;2023-05-03T14:57:53;14.80;82.80
15231;DHT22;32569;51.762;8.564;2023-05-03T15:00:20;14.80;82.60
15231;DHT22;32569;51.762;8.564;2023-05-03T15:02:51;14.70;83.70
15231;DHT22;32569;51.762;8.564;2023-05-03T15:05:18;14.80;84.50
15231;DHT22;32569;51.762;8.564;2023-05-03T15:07:45;14.70;83.70
15231;DHT22;32569;51.762;8.564;2023-05-03T15:10:13;14.80;85.30
15231;DHT22;32569;51.762;8.564;2023-05-03T15:12:40;14.80;83.40
15231;DHT22;32569;51.762;8.564;2023-05-03T15:15:07;14.80;83.40
15231;DHT22;32569;51.762;8.564;2023-05-03T15:17:36;14.90;82.10
15231;DHT22;32569;51.762;8.564;2023-05-03T15:20:04;14.90;83.00
15231;DHT22;32569;51.762;8.564;2023-05-03T15:22:31;14.90;82.70
15231;DHT22;32569;51.762;8.564;2023-05-03T15:24:58;15.00;82.90
15231;DHT22;32569;51.762;8.564;2023-05-03T15:27:26;15.10;81.80
15231;DHT22;32569;51.762;8.564;2023-05-03T15:29:52;15.10;81.70
15231;DHT22;32569;51.762;8.564;2023-05-03T15:32:19;15.10;81.60
15231;DHT22;32569;51.762;8.564;2023-05-03T15:34:46;15.10;82.00
15231;DHT22;32569;51.762;8.564;2023-05-03T15:37:12;15.10;81.10
15231;DHT22;32569;51.762;8.564;2023-05-03T15:39:39;15.00;81.10
15231;DHT22;32569;51.762;8.564;2023-05-03T15:42:06;15.10;81.40
15231;DHT22;32569;51.762;8.564;2023-05-03T15:44:34;15.00;80.70
15231;DHT22;32569;51.762;8.564;2023-05-03T15:47:00;15.00;81.00
15231;DHT22;32569;51.762;8.564;2023-05-03T15:49:27;15.10;81.50
15231;DHT22;32569;51.762;8.564;2023-05-03T15:51:54;15.10;80.00